Bookmark and Share
Track history (hours):
 

Vestborg

Last reported at 2014-Apr-20 02:33 UTC. Time now 2014-Apr-24 11:15 UTC.
Position N 59°16' E 005°20'.

Length 66 m; draft 4.2 m.

Type: Cargo ship. MMSI: 518120000.

NotesDate/timePositionNaut miles runAvg speedWind from/ knotsBaromVisibWave heightAir tempDewpointWater temp
2014-Apr-20 02:33N 59°16' E 005°20'9 9.1
2014-Apr-20 01:33N 59°07' E 005°21'9 8.6
2014-Apr-20 00:34N 58°58' E 005°21'9 9.0
2014-Apr-19 23:33N 58°49' E 005°23'10 9.7
2014-Apr-19 22:33N 58°40' E 005°30'10 9.5
2014-Apr-19 21:29N 58°31' E 005°39'9 9.3
2014-Apr-19 20:33N 58°25' E 005°51'5 4.7
2014-Apr-19 19:33N 58°27' E 005°60'0 0.0
2014-Apr-19 18:33N 58°27' E 005°60'0 0.0
2014-Apr-19 17:33N 58°27' E 005°60'0 0.0
2014-Apr-19 16:33N 58°27' E 005°60'0 0.0
2014-Apr-19 15:33N 58°27' E 005°60'0 0.0
2014-Apr-19 14:33N 58°27' E 005°60'0 0.0
2014-Apr-19 13:33N 58°27' E 005°60'0 0.0
2014-Apr-19 12:34N 58°27' E 005°60'0 0.0
2014-Apr-19 11:33N 58°27' E 005°60'0 0.0
2014-Apr-19 10:33N 58°27' E 005°60'0 0.0
2014-Apr-19 09:33N 58°27' E 005°60'0 0.0
2014-Apr-19 08:33N 58°27' E 005°60'0 0.0
2014-Apr-19 07:33N 58°27' E 005°60'0 0.0
2014-Apr-19 06:33N 58°27' E 005°60'0 0.0
2014-Apr-19 05:33N 58°27' E 005°60'0 0.0
2014-Apr-19 04:33N 58°27' E 005°60'0 0.0
2014-Apr-19 03:33N 58°27' E 005°60'0 0.0
2014-Apr-19 02:33N 58°27' E 005°60'0 0.0
2014-Apr-19 01:33N 58°27' E 005°60'0 0.0
2014-Apr-19 00:33N 58°27' E 005°60'0 0.0
2014-Apr-18 23:33N 58°27' E 005°60'0 0.0
2014-Apr-18 22:33N 58°27' E 005°60'3 3.0
2014-Apr-18 21:33N 58°24' E 005°58'7 7.3
2014-Apr-18 20:33N 58°27' E 005°46'8 7.5
2014-Apr-18 19:33N 58°34' E 005°37'9 7.8
2014-Apr-18 18:26N 58°41' E 005°29'7 8.4
2014-Apr-18 17:33N 58°48' E 005°24'9 9.2
2014-Apr-18 16:33N 58°57' E 005°21'9 9.0
2014-Apr-18 15:33N 59°06' E 005°19'9 9.0
2014-Apr-18 14:33N 59°15' E 005°20'13 9.1
2014-Apr-18 13:07N 59°27' E 005°13'182 6.6
2014-Apr-17 09:26N 62°27' E 006°09'1 1.2
2014-Apr-17 08:33N 62°28' E 006°09'0 0.0
2014-Apr-17 07:33N 62°28' E 006°09'0 0.0
2014-Apr-17 06:32N 62°28' E 006°09'0 0.0
2014-Apr-17 05:33N 62°28' E 006°09'0 0.0
2014-Apr-17 04:33N 62°28' E 006°09'0 0.0
2014-Apr-17 03:33N 62°28' E 006°09'0 0.0
2014-Apr-17 02:32N 62°28' E 006°09'0 0.0
2014-Apr-17 01:32N 62°28' E 006°09'0 0.0
2014-Apr-17 00:33N 62°28' E 006°09'0 0.0
2014-Apr-16 23:33N 62°28' E 006°09'0 0.0
2014-Apr-16 22:33N 62°28' E 006°09'0 0.0
2014-Apr-16 21:33N 62°28' E 006°09'0 0.0
2014-Apr-16 20:08N 62°28' E 006°09'0 0.0
2014-Apr-16 19:33N 62°28' E 006°09'0 0.0
2014-Apr-16 18:33N 62°28' E 006°09'0 0.0
2014-Apr-16 17:33N 62°28' E 006°09'0 0.0
2014-Apr-16 16:33N 62°28' E 006°09'2 1.8
2014-Apr-16 15:33N 62°29' E 006°06'8 8.1
2014-Apr-16 14:32N 62°36' E 006°16'115 7.2
2014-Apr-15 22:34N 63°28' E 010°02'8 8.2
2014-Apr-15 21:34N 63°27' E 010°20'2 2.4
2014-Apr-15 20:32N 63°27' E 010°25'0 0.0
2014-Apr-15 19:32N 63°27' E 010°25'0 0.0
2014-Apr-15 18:32N 63°27' E 010°25'0 0.0
2014-Apr-15 17:32N 63°27' E 010°25'0 0.0
2014-Apr-15 16:32N 63°27' E 010°25'0 0.0
2014-Apr-15 15:32N 63°27' E 010°25'0 0.0
2014-Apr-15 14:32N 63°27' E 010°25'0 0.0
2014-Apr-15 12:33N 63°27' E 010°25'0 0.0
2014-Apr-15 11:33N 63°27' E 010°25'3 2.9
2014-Apr-15 10:34N 63°27' E 010°19'10 9.1
2014-Apr-15 09:29N 63°29' E 009°57'  

Dump ship's entire track history

sailing weather and tide predictions

Vestborg — E5U2070 — position and weather